Time;durP1;ratioP1;P1;durP2;ratioP2;P2;SDS_P1;SDS_P2;PMS_P1;PMS_P2;Temp;Humidity;BMP_temperature;BMP_pressure;BME280_temperature;BME280_humidity;BME280_pressure;Samples;Min_cycle;Max_cycle;Signal;HPM_P1;HPM_P2
2022/08/03 00:01:51;;;;;;;3.75;2.20;;;24.00;85.10;;;;;;5021856;28;20195;-73
2022/08/03 00:04:19;;;;;;;3.53;2.10;;;23.90;85.40;;;;;;5025343;28;20203;-68
2022/08/03 00:06:49;;;;;;;2.15;1.88;;;23.90;85.80;;;;;;5029033;28;20174;-68
2022/08/03 00:09:18;;;;;;;3.10;1.70;;;23.90;86.20;;;;;;5022709;28;20275;-71
2022/08/03 00:11:44;;;;;;;2.28;2.00;;;23.80;86.40;;;;;;5031710;28;20175;-71
2022/08/03 00:14:11;;;;;;;2.28;1.50;;;23.80;86.70;;;;;;5024998;28;20205;-70
2022/08/03 00:16:37;;;;;;;2.72;1.70;;;23.80;87.00;;;;;;5027698;28;20189;-69
2022/08/03 00:19:05;;;;;;;1.70;1.50;;;23.70;87.30;;;;;;5027838;28;20174;-72
2022/08/03 00:21:31;;;;;;;1.45;1.25;;;23.70;87.70;;;;;;5032364;28;20199;-71
2022/08/03 00:23:56;;;;;;;2.17;1.90;;;23.70;88.00;;;;;;5030862;28;20193;-70
2022/08/03 00:26:22;;;;;;;1.77;1.55;;;23.70;88.30;;;;;;5030374;28;20236;-69
2022/08/03 00:28:48;;;;;;;1.83;1.50;;;23.70;88.60;;;;;;5031693;28;20190;-70
2022/08/03 00:31:17;;;;;;;1.70;1.50;;;23.60;88.90;;;;;;5021855;28;20175;-71
2022/08/03 00:33:45;;;;;;;2.15;1.70;;;23.60;89.10;;;;;;5030850;28;20186;-71
2022/08/03 00:36:11;;;;;;;2.30;1.60;;;23.60;89.50;;;;;;5031484;28;20249;-72
2022/08/03 00:38:41;;;;;;;1.58;1.48;;;23.60;89.80;;;;;;5032703;28;20196;-69
2022/08/03 00:41:06;;;;;;;1.50;1.40;;;23.60;90.30;;;;;;5035412;28;20195;-71
2022/08/03 00:43:32;;;;;;;1.70;1.40;;;23.50;90.10;;;;;;5017363;28;20190;-70
2022/08/03 00:46:00;;;;;;;1.50;1.40;;;23.50;90.20;;;;;;5037210;28;20179;-70
2022/08/03 00:48:26;;;;;;;2.20;1.50;;;23.50;90.40;;;;;;5037211;28;20162;-67
2022/08/03 00:50:52;;;;;;;2.03;1.20;;;23.50;90.50;;;;;;5038007;28;20205;-71
2022/08/03 00:53:18;;;;;;;2.10;1.67;;;23.40;90.70;;;;;;5034842;28;20186;-68
2022/08/03 00:55:44;;;;;;;1.90;1.48;;;23.40;90.90;;;;;;5034043;28;20205;-69
2022/08/03 00:58:10;;;;;;;1.63;1.48;;;23.40;91.00;;;;;;5040164;28;20178;-70
2022/08/03 01:00:41;;;;;;;2.25;1.30;;;23.30;91.20;;;;;;5034574;28;20202;-72
2022/08/03 01:03:11;;;;;;;1.63;1.52;;;23.30;91.30;;;;;;5033550;28;20171;-73
2022/08/03 01:06:03;;;;;;;4.00;1.80;;;23.30;91.50;;;;;;5037636;28;20233;-68
2022/08/03 01:09:00;;;;;;;1.52;1.30;;;23.30;92.60;;;;;;5038023;28;20181;-71
2022/08/03 01:11:58;;;;;;;1.52;1.40;;;23.30;92.50;;;;;;5036076;28;20170;-72
2022/08/03 01:14:39;;;;;;;1.58;1.48;;;23.20;92.10;;;;;;5028853;28;20261;-72
2022/08/03 01:17:26;;;;;;;1.90;1.65;;;23.20;92.50;;;;;;5036457;28;20301;-71
2022/08/03 01:20:10;;;;;;;1.80;1.60;;;23.20;92.90;;;;;;5034557;28;20209;-71
2022/08/03 01:23:04;;;;;;;1.60;1.50;;;23.10;92.90;;;;;;5036652;28;20171;-71
2022/08/03 01:25:57;;;;;;;1.52;1.42;;;23.00;93.20;;;;;;5031693;28;20209;-72
2022/08/03 01:28:58;;;;;;;1.40;1.30;;;23.00;93.00;;;;;;5029620;28;20174;-72
2022/08/03 01:31:31;;;;;;;1.42;1.33;;;23.00;93.30;;;;;;5034281;28;20217;-70
2022/08/03 01:34:01;;;;;;;1.52;1.35;;;22.90;93.00;;;;;;5038230;28;20210;-72
2022/08/03 01:36:34;;;;;;;1.50;1.40;;;22.90;93.20;;;;;;5037049;28;20178;-69
2022/08/03 01:39:02;;;;;;;1.40;1.30;;;22.90;93.40;;;;;;5031419;28;20198;-71
2022/08/03 01:41:31;;;;;;;1.75;1.60;;;22.90;93.30;;;;;;5031737;28;20202;-69
2022/08/03 01:44:00;;;;;;;2.72;1.42;;;22.90;93.60;;;;;;5039461;28;20181;-69
2022/08/03 01:46:28;;;;;;;1.90;1.70;;;22.80;93.60;;;;;;5041390;28;20241;-72
2022/08/03 01:48:55;;;;;;;1.85;1.65;;;22.80;93.80;;;;;;5040835;28;20178;-72
2022/08/03 01:51:24;;;;;;;1.85;1.30;;;22.80;93.70;;;;;;5034994;28;20221;-72
2022/08/03 01:53:55;;;;;;;1.73;1.42;;;22.80;93.90;;;;;;5028579;28;20194;-72
2022/08/03 01:56:23;;;;;;;1.20;1.10;;;22.70;94.20;;;;;;5041771;28;20182;-71
2022/08/03 01:58:51;;;;;;;2.42;1.50;;;22.70;94.20;;;;;;5033622;28;20197;-72
2022/08/03 02:01:21;;;;;;;1.60;1.50;;;22.70;94.20;;;;;;5031114;28;20229;-72
2022/08/03 02:03:49;;;;;;;1.67;1.58;;;22.60;94.20;;;;;;5036195;28;20233;-72
2022/08/03 02:06:15;;;;;;;1.63;1.40;;;22.60;94.40;;;;;;5031420;28;20182;-68
2022/08/03 02:08:47;;;;;;;1.63;1.42;;;22.60;94.40;;;;;;5029086;28;20178;-72
2022/08/03 02:11:13;;;;;;;2.67;1.60;;;22.60;94.70;;;;;;5032786;28;20189;-70
2022/08/03 02:13:39;;;;;;;1.60;1.50;;;22.60;94.60;;;;;;5037813;28;20190;-72
2022/08/03 02:16:06;;;;;;;1.52;1.40;;;22.60;94.70;;;;;;5034223;28;20182;-71
2022/08/03 02:18:32;;;;;;;1.80;1.50;;;22.60;94.90;;;;;;5038349;28;20238;-72
2022/08/03 02:21:04;;;;;;;2.80;1.35;;;22.60;94.90;;;;;;5034620;28;20273;-72
2022/08/03 02:23:30;;;;;;;1.45;1.27;;;22.60;95.30;;;;;;5035934;28;20258;-71
2022/08/03 02:26:06;;;;;;;1.80;1.55;;;22.50;95.00;;;;;;5036006;28;20197;-72
2022/08/03 02:28:38;;;;;;;2.80;1.48;;;22.50;95.60;;;;;;5033759;28;20185;-72
2022/08/03 02:31:15;;;;;;;2.00;1.48;;;22.50;95.50;;;;;;5031979;28;20213;-70
2022/08/03 02:33:48;;;;;;;1.50;1.40;;;22.50;95.90;;;;;;5046997;28;20201;-71
2022/08/03 02:36:18;;;;;;;1.70;1.60;;;22.40;96.00;;;;;;5034004;28;20253;-70
2022/08/03 02:38:47;;;;;;;1.38;1.27;;;22.40;95.80;;;;;;5039381;28;20185;-70
2022/08/03 02:41:16;;;;;;;1.60;1.50;;;22.40;95.80;;;;;;5033476;28;20210;-70
2022/08/03 02:43:47;;;;;;;2.40;1.60;;;22.40;96.20;;;;;;5032217;28;20201;-71
2022/08/03 02:46:16;;;;;;;2.33;1.60;;;22.30;96.30;;;;;;5033512;28;20223;-70
2022/08/03 02:48:43;;;;;;;2.33;1.40;;;22.30;96.30;;;;;;5029088;28;20225;-72
2022/08/03 02:51:10;;;;;;;1.80;1.52;;;22.30;96.50;;;;;;5035277;28;20186;-72
2022/08/03 02:53:36;;;;;;;1.70;1.40;;;22.30;96.60;;;;;;5031437;28;20182;-67
2022/08/03 02:56:06;;;;;;;1.70;1.50;;;22.20;96.70;;;;;;5031664;28;21276;-72
2022/08/03 02:58:35;;;;;;;1.85;1.60;;;22.20;97.00;;;;;;5034312;28;20191;-72
2022/08/03 03:01:04;;;;;;;1.60;1.30;;;22.20;97.10;;;;;;5030653;28;20208;-72
2022/08/03 03:03:33;;;;;;;1.80;1.38;;;22.20;97.20;;;;;;5025410;28;20178;-72
2022/08/03 03:06:01;;;;;;;1.60;1.50;;;22.20;97.30;;;;;;5025889;28;20193;-70
2022/08/03 03:08:27;;;;;;;1.50;1.40;;;22.10;97.50;;;;;;5022847;28;20177;-68
2022/08/03 03:10:56;;;;;;;1.90;1.60;;;22.10;97.60;;;;;;5021299;28;20253;-71
2022/08/03 03:13:25;;;;;;;1.60;1.40;;;22.10;98.10;;;;;;5027288;28;20185;-72
2022/08/03 03:15:51;;;;;;;1.70;1.50;;;22.10;98.00;;;;;;5027776;28;20202;-70
2022/08/03 03:18:21;;;;;;;1.73;1.50;;;22.10;98.10;;;;;;5028211;28;20174;-72
2022/08/03 03:20:50;;;;;;;2.25;1.45;;;22.10;98.30;;;;;;5030172;28;20194;-69
2022/08/03 03:23:16;;;;;;;2.00;1.50;;;22.10;98.40;;;;;;5030914;28;20175;-72
2022/08/03 03:25:45;;;;;;;3.03;1.40;;;22.00;98.50;;;;;;5033936;28;20198;-71
2022/08/03 03:28:11;;;;;;;3.78;1.60;;;22.00;98.90;;;;;;5032718;28;20247;-71
2022/08/03 03:30:37;;;;;;;1.55;1.45;;;22.00;99.00;;;;;;5026856;28;20384;-71
2022/08/03 03:33:03;;;;;;;1.90;1.60;;;22.00;98.80;;;;;;5029230;28;20217;-72
2022/08/03 03:35:29;;;;;;;3.53;1.63;;;22.00;98.90;;;;;;5031135;28;20209;-76
2022/08/03 03:37:55;;;;;;;1.65;1.30;;;21.90;99.10;;;;;;5036482;28;20274;-71
2022/08/03 03:40:21;;;;;;;2.67;1.50;;;21.90;99.20;;;;;;5029317;28;20195;-72
2022/08/03 03:42:48;;;;;;;1.90;1.60;;;21.90;99.40;;;;;;5030847;28;20263;-70
2022/08/03 03:45:14;;;;;;;1.55;1.33;;;21.90;99.50;;;;;;5032445;28;20178;-71
2022/08/03 03:47:42;;;;;;;2.17;1.90;;;21.90;99.70;;;;;;5032453;28;20175;-72
2022/08/03 03:50:11;;;;;;;1.50;1.40;;;21.80;99.90;;;;;;5032505;28;20274;-72
2022/08/03 03:52:41;;;;;;;1.60;1.50;;;21.80;99.90;;;;;;5034218;28;20186;-69
2022/08/03 03:55:07;;;;;;;2.90;1.50;;;21.80;99.90;;;;;;5031471;28;20179;-71
2022/08/03 03:57:34;;;;;;;1.83;1.50;;;21.80;99.90;;;;;;5030877;28;20261;-71
2022/08/03 03:59:59;;;;;;;1.92;1.48;;;21.80;99.90;;;;;;5031000;28;20181;-70
2022/08/03 04:02:25;;;;;;;1.92;1.70;;;21.80;99.90;;;;;;5036090;28;20198;-68
2022/08/03 04:13:32;;;;;;;2.10;1.90;;;21.70;99.90;;;;;;5034372;28;20226;-71
2022/08/03 04:15:59;;;;;;;4.28;1.90;;;21.70;99.90;;;;;;5031830;28;20209;-72
2022/08/03 04:18:26;;;;;;;2.40;2.20;;;21.70;99.90;;;;;;5041892;28;20186;-77
2022/08/03 04:20:54;;;;;;;3.78;2.72;;;21.70;99.90;;;;;;5020615;28;20203;-84
2022/08/03 04:23:24;;;;;;;2.70;2.25;;;21.70;99.90;;;;;;5041218;28;20189;-87
2022/08/03 04:25:51;;;;;;;6.68;5.68;;;21.70;99.90;;;;;;5018912;28;20185;-82
2022/08/03 04:28:22;;;;;;;8.65;7.32;;;21.70;99.90;;;;;;5029349;28;20187;-82
2022/08/03 04:30:49;;;;;;;6.60;4.80;;;21.70;99.90;;;;;;5032628;28;20186;-82
2022/08/03 04:33:16;;;;;;;4.15;3.50;;;21.70;99.90;;;;;;5032017;28;20214;-83
2022/08/03 04:35:45;;;;;;;2.55;2.30;;;21.70;99.90;;;;;;5032330;28;20202;-80
2022/08/03 04:38:14;;;;;;;2.70;2.13;;;21.70;99.90;;;;;;5028271;28;20182;-81
2022/08/03 04:40:43;;;;;;;8.07;3.03;;;21.70;99.90;;;;;;5037197;28;20217;-85
2022/08/03 04:43:14;;;;;;;3.20;2.28;;;21.70;99.90;;;;;;5037416;28;20186;-85
2022/08/03 04:45:58;;;;;;;3.47;2.50;;;21.70;99.90;;;;;;5036219;28;20253;-84
2022/08/03 04:48:35;;;;;;;2.10;1.90;;;21.80;99.90;;;;;;5036028;28;20186;-81
2022/08/03 04:51:05;;;;;;;3.35;1.95;;;21.80;99.90;;;;;;5034796;28;20262;-82
2022/08/03 04:53:36;;;;;;;2.80;2.10;;;21.80;99.90;;;;;;5036871;28;20189;-79
2022/08/03 04:56:05;;;;;;;2.28;1.90;;;21.80;99.90;;;;;;5041952;28;20191;-82
2022/08/03 04:58:32;;;;;;;3.42;1.90;;;21.80;99.90;;;;;;5037187;28;20211;-77
2022/08/03 05:00:58;;;;;;;3.13;2.00;;;21.80;99.90;;;;;;5033749;28;20198;-85
2022/08/03 05:03:24;;;;;;;6.30;5.65;;;21.80;99.90;;;;;;5040097;28;20174;-80
2022/08/03 05:05:54;;;;;;;4.68;4.18;;;21.90;99.90;;;;;;5026349;28;20217;-81
2022/08/03 05:08:19;;;;;;;3.78;3.47;;;21.90;99.90;;;;;;5023575;28;20201;-81
2022/08/03 05:10:48;;;;;;;3.63;3.08;;;22.00;99.90;;;;;;5022203;28;20184;-80
2022/08/03 05:13:14;;;;;;;3.05;2.58;;;22.00;99.90;;;;;;5023674;28;20218;-83
2022/08/03 05:15:40;;;;;;;3.78;2.50;;;22.00;99.90;;;;;;5024448;28;20198;-81
2022/08/03 05:18:06;;;;;;;4.20;2.50;;;22.10;99.90;;;;;;5022587;28;20205;-86
2022/08/03 05:20:32;;;;;;;2.83;2.25;;;22.10;99.90;;;;;;5020469;28;20206;-84
2022/08/03 05:23:08;;;;;;;4.28;3.63;;;22.10;99.90;;;;;;5021011;28;20305;-83
2022/08/03 05:25:36;;;;;;;6.47;5.18;;;22.20;99.90;;;;;;5022552;28;20206;-85
2022/08/03 05:28:02;;;;;;;3.45;3.15;;;22.20;99.90;;;;;;5027923;28;20194;-83
2022/08/03 05:30:28;;;;;;;3.13;2.80;;;22.20;99.90;;;;;;5024431;28;20273;-84
2022/08/03 05:32:54;;;;;;;2.72;2.25;;;22.20;99.90;;;;;;5027397;28;20221;-83
2022/08/03 05:35:24;;;;;;;2.42;2.00;;;22.30;99.90;;;;;;5025943;28;20189;-85
2022/08/03 05:37:50;;;;;;;2.42;2.03;;;22.30;99.90;;;;;;5016838;28;20209;-88
2022/08/03 05:40:15;;;;;;;4.18;2.03;;;22.30;99.90;;;;;;5013560;28;20207;-72
2022/08/03 05:42:41;;;;;;;2.13;1.80;;;22.30;99.90;;;;;;5035456;28;20176;-78
2022/08/03 05:45:17;;;;;;;2.30;2.00;;;22.40;99.90;;;;;;5021535;28;20183;-75
2022/08/03 05:47:49;;;;;;;3.33;1.70;;;22.40;99.90;;;;;;5012416;28;20174;-75
2022/08/03 05:50:18;;;;;;;2.10;1.70;;;22.40;99.90;;;;;;5009606;28;20225;-76
2022/08/03 05:52:44;;;;;;;2.35;1.80;;;22.40;99.90;;;;;;5010753;28;20181;-81
2022/08/03 05:55:11;;;;;;;2.60;2.10;;;22.50;99.90;;;;;;5014534;28;20206;-79
2022/08/03 05:57:40;;;;;;;2.13;1.92;;;22.50;99.90;;;;;;5015816;28;20197;-77
2022/08/03 06:00:11;;;;;;;2.55;2.35;;;22.60;99.90;;;;;;5023465;28;20183;-78
2022/08/03 06:02:37;;;;;;;5.13;4.07;;;22.60;99.90;;;;;;5016040;28;20181;-78
2022/08/03 06:05:03;;;;;;;3.30;2.75;;;22.70;99.90;;;;;;5010759;28;20481;-77
2022/08/03 06:07:33;;;;;;;2.50;2.22;;;22.70;99.90;;;;;;5014258;28;20260;-79
2022/08/03 06:10:02;;;;;;;2.70;2.10;;;22.80;99.90;;;;;;5012427;28;20182;-77
2022/08/03 06:12:29;;;;;;;2.28;1.90;;;22.90;99.90;;;;;;5015704;28;20236;-79
2022/08/03 06:14:57;;;;;;;5.03;2.17;;;22.90;99.90;;;;;;5028172;28;20194;-78
2022/08/03 06:17:28;;;;;;;2.17;1.80;;;23.00;99.90;;;;;;5019329;28;20186;-78
2022/08/03 06:19:56;;;;;;;2.20;2.00;;;23.00;99.90;;;;;;5019984;28;20259;-78
2022/08/03 06:22:24;;;;;;;2.85;2.05;;;23.10;99.90;;;;;;5018527;28;20183;-78
2022/08/03 06:24:51;;;;;;;3.92;1.83;;;23.10;99.90;;;;;;5016034;28;20263;-78
2022/08/03 06:27:19;;;;;;;2.40;1.83;;;23.20;99.90;;;;;;5012967;28;20183;-80
2022/08/03 06:29:45;;;;;;;1.80;1.70;;;23.20;99.90;;;;;;5014565;28;20322;-82
2022/08/03 06:32:10;;;;;;;2.83;1.75;;;23.30;99.90;;;;;;5013490;28;20269;-81
2022/08/03 06:34:39;;;;;;;2.08;1.77;;;23.30;99.90;;;;;;5017429;28;20198;-74
2022/08/03 06:37:04;;;;;;;3.38;2.00;;;23.40;99.90;;;;;;5015645;28;20193;-78
2022/08/03 06:39:30;;;;;;;2.80;1.50;;;23.40;99.90;;;;;;5017249;28;20202;-75
2022/08/03 06:41:56;;;;;;;4.18;1.88;;;23.50;99.90;;;;;;5016636;28;20222;-77
2022/08/03 06:44:24;;;;;;;2.88;1.73;;;23.60;99.90;;;;;;5018841;28;20248;-77
2022/08/03 06:46:52;;;;;;;3.35;2.00;;;23.60;99.90;;;;;;5017709;28;20256;-77
2022/08/03 06:49:21;;;;;;;2.00;1.67;;;23.70;99.90;;;;;;5017293;28;20193;-75
2022/08/03 06:51:49;;;;;;;2.00;1.70;;;23.70;99.90;;;;;;5019952;28;20206;-77
2022/08/03 06:54:15;;;;;;;2.22;1.90;;;23.80;99.90;;;;;;5021214;28;21046;-76
2022/08/03 06:56:41;;;;;;;3.83;1.88;;;23.90;99.90;;;;;;5020524;28;20201;-77
2022/08/03 06:59:06;;;;;;;4.00;2.50;;;23.90;99.90;;;;;;5020463;28;20181;-77
2022/08/03 07:01:32;;;;;;;2.50;2.03;;;24.00;99.90;;;;;;5019464;28;20195;-77
2022/08/03 07:03:59;;;;;;;2.40;1.85;;;24.00;99.90;;;;;;5022719;28;20185;-77
2022/08/03 07:06:25;;;;;;;2.97;1.90;;;24.10;99.90;;;;;;5019643;28;20174;-77
2022/08/03 07:08:50;;;;;;;3.30;2.00;;;24.10;99.90;;;;;;5021066;28;20269;-76
2022/08/03 07:11:18;;;;;;;2.90;1.85;;;24.20;99.90;;;;;;5017103;28;20201;-77
2022/08/03 07:13:44;;;;;;;2.00;1.80;;;24.30;99.90;;;;;;5022515;28;20190;-76
2022/08/03 07:16:10;;;;;;;2.78;1.83;;;24.40;99.90;;;;;;5015060;28;20177;-77
2022/08/03 07:18:41;;;;;;;2.55;2.00;;;24.40;99.90;;;;;;5024771;28;20199;-76
2022/08/03 07:21:08;;;;;;;3.63;1.70;;;24.50;99.90;;;;;;5014473;28;20277;-76
2022/08/03 07:23:34;;;;;;;2.22;1.90;;;24.50;99.90;;;;;;5021333;28;20281;-74
2022/08/03 07:26:00;;;;;;;2.20;1.67;;;24.60;99.90;;;;;;5025491;28;20285;-75
2022/08/03 07:28:25;;;;;;;2.55;1.80;;;24.70;99.90;;;;;;5023071;28;20175;-75
2022/08/03 07:30:56;;;;;;;1.75;1.58;;;24.70;99.90;;;;;;5018519;28;20178;-75
2022/08/03 07:33:21;;;;;;;2.30;1.92;;;24.80;99.90;;;;;;5023444;28;20204;-72
2022/08/03 07:35:47;;;;;;;3.55;2.40;;;24.90;99.90;;;;;;5021530;28;20187;-76
2022/08/03 07:38:13;;;;;;;2.40;1.90;;;25.00;99.90;;;;;;5026018;28;20233;-74
2022/08/03 07:40:40;;;;;;;1.88;1.77;;;25.10;99.90;;;;;;5027614;28;20226;-76
2022/08/03 07:43:09;;;;;;;2.92;2.00;;;25.10;99.90;;;;;;5041824;28;20249;-77
2022/08/03 07:45:34;;;;;;;3.60;1.85;;;25.20;99.90;;;;;;5020918;28;20179;-76
2022/08/03 07:48:02;;;;;;;4.07;1.95;;;25.30;99.90;;;;;;5022679;28;20196;-76
2022/08/03 07:50:28;;;;;;;2.60;1.83;;;25.30;99.90;;;;;;5019826;28;20376;-76
2022/08/03 07:52:54;;;;;;;1.75;1.65;;;25.40;99.90;;;;;;5023658;28;20218;-77
2022/08/03 07:55:25;;;;;;;2.67;2.00;;;25.50;99.90;;;;;;5026109;28;20252;-69
2022/08/03 07:58:06;;;;;;;2.42;1.80;;;25.60;99.90;;;;;;5024258;28;20376;-76
2022/08/03 08:00:32;;;;;;;2.28;1.80;;;25.70;99.90;;;;;;5026509;28;20281;-75
2022/08/03 08:02:58;;;;;;;3.30;2.05;;;25.70;99.90;;;;;;5025620;28;20564;-77
2022/08/03 08:05:27;;;;;;;2.35;1.90;;;25.80;99.90;;;;;;5025603;28;21200;-76
2022/08/03 08:07:55;;;;;;;2.28;1.95;;;25.90;99.90;;;;;;5028799;28;20269;-76
2022/08/03 08:10:21;;;;;;;1.95;1.80;;;26.00;99.90;;;;;;5041874;28;20178;-76
2022/08/03 08:12:49;;;;;;;2.65;2.45;;;26.10;99.90;;;;;;5028978;28;20189;-76
2022/08/03 08:15:15;;;;;;;2.35;1.90;;;26.20;99.90;;;;;;5028870;28;20175;-75
2022/08/03 08:17:52;;;;;;;3.50;2.00;;;26.30;99.90;;;;;;5027068;28;20186;-77
2022/08/03 08:20:23;;;;;;;2.10;1.65;;;26.40;99.90;;;;;;5030887;28;20213;-77
2022/08/03 08:22:49;;;;;;;3.05;2.13;;;26.50;99.90;;;;;;5019246;28;20233;-76
2022/08/03 08:25:15;;;;;;;2.20;1.75;;;26.60;99.90;;;;;;5023557;28;20233;-76
2022/08/03 08:27:45;;;;;;;1.92;1.73;;;26.70;99.90;;;;;;5027992;28;20209;-76
2022/08/03 08:30:15;;;;;;;2.63;1.77;;;26.80;99.90;;;;;;5025526;28;20295;-75
2022/08/03 08:32:44;;;;;;;3.25;1.95;;;26.90;99.90;;;;;;5026404;28;20217;-77
2022/08/03 08:35:13;;;;;;;2.05;1.80;;;27.00;99.90;;;;;;5031427;28;20247;-76
2022/08/03 08:37:40;;;;;;;1.77;1.50;;;27.10;99.90;;;;;;5025012;28;20210;-77
2022/08/03 08:40:09;;;;;;;2.25;1.75;;;27.20;99.90;;;;;;5033516;28;20179;-73
2022/08/03 08:42:37;;;;;;;2.55;1.80;;;27.30;99.30;;;;;;5024990;28;20229;-74
2022/08/03 08:45:10;;;;;;;1.75;1.40;;;27.30;99.30;;;;;;5028801;28;20198;-76
2022/08/03 08:47:38;;;;;;;2.75;1.30;;;27.40;99.20;;;;;;5029281;28;20264;-71
2022/08/03 08:50:06;;;;;;;2.08;1.45;;;27.50;98.70;;;;;;5034722;28;20192;-78
2022/08/03 08:52:33;;;;;;;3.80;1.40;;;27.60;98.60;;;;;;5023154;28;20273;-77
2022/08/03 08:55:04;;;;;;;1.60;1.45;;;27.80;98.50;;;;;;5025574;28;20232;-77
2022/08/03 08:57:34;;;;;;;2.03;1.45;;;27.90;98.20;;;;;;5025593;28;20514;-76
2022/08/03 09:00:01;;;;;;;1.80;1.30;;;28.00;98.00;;;;;;5026151;28;20206;-78
2022/08/03 09:02:34;;;;;;;2.83;1.52;;;28.10;98.00;;;;;;5023085;28;20176;-76
2022/08/03 09:05:00;;;;;;;2.50;1.50;;;28.20;97.70;;;;;;5023273;28;20183;-77
2022/08/03 09:07:27;;;;;;;1.60;1.38;;;28.30;97.70;;;;;;5025452;28;20249;-78
2022/08/03 09:09:54;;;;;;;2.70;1.50;;;28.30;97.50;;;;;;5027110;28;20291;-78
2022/08/03 09:12:22;;;;;;;2.05;1.33;;;28.50;97.50;;;;;;5024450;28;20277;-79
2022/08/03 09:14:50;;;;;;;1.98;1.20;;;28.60;97.00;;;;;;5027215;28;20213;-78
2022/08/03 09:17:18;;;;;;;2.50;1.38;;;28.70;96.80;;;;;;5028058;28;20196;-72
2022/08/03 09:20:07;;;;;;;2.20;1.48;;;28.80;96.10;;;;;;5026848;28;20187;-76
2022/08/03 09:22:32;;;;;;;1.90;1.30;;;28.90;95.30;;;;;;5022774;28;20225;-73
2022/08/03 09:25:10;;;;;;;1.63;1.20;;;29.00;95.70;;;;;;5030039;28;20189;-78
2022/08/03 09:27:44;;;;;;;2.00;1.38;;;29.00;95.50;;;;;;5026224;28;20183;-78
2022/08/03 09:30:19;;;;;;;2.92;1.48;;;29.20;94.60;;;;;;5022716;28;20198;-76
2022/08/03 09:32:46;;;;;;;1.73;1.38;;;29.20;94.50;;;;;;5023622;28;20190;-78
2022/08/03 09:35:13;;;;;;;1.40;1.30;;;29.30;94.60;;;;;;5024114;28;20196;-79
2022/08/03 09:37:39;;;;;;;1.77;1.30;;;29.40;94.50;;;;;;5018537;28;20185;-77
2022/08/03 09:40:08;;;;;;;2.55;1.52;;;29.50;94.40;;;;;;5023256;28;20240;-78
2022/08/03 09:42:38;;;;;;;3.65;1.60;;;29.60;93.80;;;;;;5028175;28;20189;-76
2022/08/03 09:45:07;;;;;;;2.17;1.40;;;29.70;94.00;;;;;;5023108;28;20179;-77
2022/08/03 09:47:37;;;;;;;2.42;1.50;;;29.80;94.00;;;;;;5027374;28;20182;-76
2022/08/03 09:50:05;;;;;;;3.15;1.55;;;30.00;93.80;;;;;;5025493;28;20210;-76
2022/08/03 09:52:36;;;;;;;1.63;1.42;;;30.00;93.30;;;;;;5021929;28;20190;-78
2022/08/03 09:55:16;;;;;;;1.40;1.30;;;30.10;92.90;;;;;;5029148;28;20234;-76
2022/08/03 09:57:45;;;;;;;1.70;1.25;;;30.30;92.40;;;;;;5027632;28;20272;-77
2022/08/03 10:00:16;;;;;;;2.45;1.50;;;30.30;93.00;;;;;;5031774;28;20178;-77
2022/08/03 10:02:46;;;;;;;2.20;1.33;;;30.40;92.30;;;;;;5022530;28;20197;-78
2022/08/03 10:05:13;;;;;;;1.90;1.58;;;30.50;92.40;;;;;;5020688;28;20463;-75
2022/08/03 10:07:49;;;;;;;1.45;1.30;;;30.60;92.00;;;;;;5019472;28;20205;-78
2022/08/03 10:10:18;;;;;;;2.35;1.40;;;30.70;91.10;;;;;;5022636;28;20178;-76
2022/08/03 10:12:44;;;;;;;1.58;1.48;;;30.80;91.70;;;;;;5029392;28;20182;-78
2022/08/03 10:15:10;;;;;;;1.48;1.38;;;30.80;91.40;;;;;;5027809;28;20257;-77
2022/08/03 10:17:38;;;;;;;1.63;1.40;;;30.90;91.10;;;;;;5020880;28;20301;-77
2022/08/03 10:20:08;;;;;;;2.13;1.48;;;31.00;90.60;;;;;;5045000;28;20205;-78
2022/08/03 10:22:38;;;;;;;1.70;1.58;;;31.10;90.90;;;;;;5025455;28;20174;-75
2022/08/03 10:25:13;;;;;;;1.50;1.40;;;31.20;90.70;;;;;;5024026;28;20186;-77
2022/08/03 10:27:46;;;;;;;1.30;1.20;;;31.30;90.30;;;;;;5019328;28;20283;-78
2022/08/03 10:30:13;;;;;;;1.42;1.13;;;31.50;89.90;;;;;;5019044;28;20189;-77
2022/08/03 10:32:53;;;;;;;2.42;1.60;;;31.90;89.70;;;;;;5024949;28;20190;-78
2022/08/03 10:35:23;;;;;;;2.20;1.30;;;32.30;86.30;;;;;;5015714;28;20202;-77
2022/08/03 10:37:59;;;;;;;1.67;1.23;;;32.60;87.40;;;;;;5028353;28;20229;-75
2022/08/03 10:40:33;;;;;;;1.50;1.40;;;32.90;85.20;;;;;;5023750;28;20208;-76
2022/08/03 10:43:08;;;;;;;2.28;1.48;;;33.30;84.30;;;;;;5019374;28;20206;-78
2022/08/03 10:45:40;;;;;;;1.30;1.20;;;33.60;82.60;;;;;;5018086;28;20290;-76
2022/08/03 10:48:10;;;;;;;1.65;1.30;;;34.00;81.90;;;;;;5018717;28;20306;-78
2022/08/03 10:50:36;;;;;;;2.33;1.17;;;34.20;83.00;;;;;;5016822;28;20229;-78
2022/08/03 10:53:08;;;;;;;2.03;1.30;;;34.40;82.70;;;;;;5015228;28;20200;-79
2022/08/03 10:58:37;;;;;;;1.83;1.50;;;35.00;78.20;;;;;;5017711;28;20276;-78
2022/08/03 11:01:07;;;;;;;1.30;1.17;;;35.30;77.20;;;;;;5020617;28;20250;-79
2022/08/03 11:03:53;;;;;;;1.30;1.20;;;35.50;78.30;;;;;;5020584;28;20192;-79
2022/08/03 11:06:26;;;;;;;1.52;1.30;;;35.60;76.80;;;;;;5017078;28;20173;-79
2022/08/03 11:09:09;;;;;;;2.45;1.10;;;35.80;75.00;;;;;;5016801;28;20170;-79
2022/08/03 11:11:39;;;;;;;3.47;1.20;;;36.00;73.20;;;;;;5019655;28;20272;-78
2022/08/03 11:14:08;;;;;;;2.25;1.30;;;36.10;74.00;;;;;;5019881;28;20229;-78
2022/08/03 11:16:41;;;;;;;1.60;1.10;;;36.20;72.00;;;;;;5019538;28;20203;-79
2022/08/03 11:19:11;;;;;;;1.40;1.02;;;36.30;71.80;;;;;;5017490;28;20217;-79
2022/08/03 11:24:40;;;;;;;1.40;0.90;;;36.30;69.50;;;;;;5019351;28;20230;-78
2022/08/03 11:29:55;;;;;;;1.92;1.25;;;36.30;68.00;;;;;;5016696;28;20178;-81
2022/08/03 11:32:36;;;;;;;1.08;0.90;;;36.30;66.20;;;;;;5015952;28;20182;-79
2022/08/03 11:35:15;;;;;;;2.25;1.10;;;36.30;66.40;;;;;;5015925;28;20516;-75
2022/08/03 11:37:59;;;;;;;2.72;1.13;;;36.30;66.30;;;;;;5016590;28;20213;-79
2022/08/03 11:40:51;;;;;;;1.67;1.20;;;36.30;64.70;;;;;;5022137;28;20256;-78
2022/08/03 11:43:28;;;;;;;2.00;1.15;;;36.30;62.10;;;;;;5023631;28;20181;-78
2022/08/03 11:46:01;;;;;;;1.65;1.08;;;36.40;63.50;;;;;;5014847;28;20181;-78
2022/08/03 11:48:38;;;;;;;1.85;1.27;;;36.50;64.10;;;;;;5020777;28;20177;-77
2022/08/03 11:53:32;;;;;;;3.60;1.33;;;36.70;65.00;;;;;;4988446;28;20230;-77
2022/08/03 11:55:59;;;;;;;1.77;1.17;;;36.80;63.80;;;;;;4979707;28;20186;-76
2022/08/03 11:58:25;;;;;;;2.53;1.20;;;36.90;64.10;;;;;;4981085;28;20218;-74
2022/08/03 12:01:02;;;;;;;2.15;1.00;;;37.00;63.00;;;;;;4988337;28;20223;-75
2022/08/03 12:03:32;;;;;;;1.70;1.08;;;37.00;62.50;;;;;;4989030;28;20194;-76
2022/08/03 12:06:00;;;;;;;1.27;1.10;;;37.10;61.40;;;;;;4983103;28;20187;-76
2022/08/03 12:08:26;;;;;;;3.05;1.10;;;37.20;62.00;;;;;;4982988;28;20239;-76
2022/08/03 12:10:52;;;;;;;2.35;1.10;;;37.30;61.90;;;;;;4983890;28;20187;-77
2022/08/03 12:13:19;;;;;;;1.73;1.25;;;37.40;61.80;;;;;;4978418;28;20262;-74
2022/08/03 12:15:51;;;;;;;1.15;0.90;;;37.50;60.90;;;;;;4984732;28;20282;-77
2022/08/03 12:18:19;;;;;;;1.38;0.98;;;37.60;59.60;;;;;;4983007;28;20195;-75
2022/08/03 12:20:45;;;;;;;2.13;1.13;;;37.70;60.00;;;;;;4977438;28;20389;-77
2022/08/03 12:23:13;;;;;;;2.03;1.17;;;37.80;59.60;;;;;;4980209;28;20194;-77
2022/08/03 12:25:41;;;;;;;1.30;1.00;;;37.90;59.00;;;;;;4982432;28;20183;-78
2022/08/03 12:28:21;;;;;;;1.75;1.13;;;38.00;58.40;;;;;;4977480;28;20203;-77
2022/08/03 12:30:49;;;;;;;1.35;1.02;;;38.00;58.20;;;;;;4985127;28;20202;-75
2022/08/03 12:33:24;;;;;;;2.42;1.10;;;38.10;57.40;;;;;;4980359;28;20211;-76
2022/08/03 12:36:04;;;;;;;1.30;1.10;;;38.10;56.30;;;;;;4983771;28;20298;-73
2022/08/03 12:38:33;;;;;;;2.15;1.10;;;38.20;56.30;;;;;;4989145;28;20203;-77
2022/08/03 12:41:12;;;;;;;1.25;1.08;;;38.30;57.30;;;;;;4980933;28;20229;-75
2022/08/03 12:43:53;;;;;;;1.38;1.20;;;38.40;56.60;;;;;;4980425;28;20186;-77
2022/08/03 12:46:21;;;;;;;1.48;1.17;;;38.50;55.30;;;;;;4984223;28;20199;-77
2022/08/03 12:49:04;;;;;;;2.60;1.20;;;38.50;55.00;;;;;;4985718;28;20322;-76
2022/08/03 12:51:38;;;;;;;1.77;1.17;;;38.60;53.80;;;;;;4990760;28;20238;-77
2022/08/03 12:54:05;;;;;;;1.40;1.02;;;38.50;55.20;;;;;;4986615;28;20190;-74
2022/08/03 12:56:32;;;;;;;1.75;1.10;;;38.60;55.00;;;;;;4983017;28;20187;-76
2022/08/03 12:59:20;;;;;;;1.10;1.00;;;38.60;54.10;;;;;;4989077;28;20179;-77
2022/08/03 13:01:51;;;;;;;2.03;1.02;;;38.60;53.30;;;;;;4983216;28;20227;-77
2022/08/03 13:04:31;;;;;;;2.28;1.00;;;38.60;53.30;;;;;;4982561;28;20186;-76
2022/08/03 13:07:09;;;;;;;1.00;0.90;;;38.60;52.20;;;;;;4984778;28;20182;-76
2022/08/03 13:09:43;;;;;;;1.35;1.08;;;38.60;52.30;;;;;;4987083;28;20187;-75
2022/08/03 13:12:17;;;;;;;1.52;0.93;;;38.70;52.50;;;;;;4977246;28;20264;-76
2022/08/03 13:14:45;;;;;;;1.70;0.90;;;38.80;53.10;;;;;;4981651;28;20234;-76
2022/08/03 13:17:11;;;;;;;1.00;0.82;;;38.90;53.00;;;;;;4991214;28;20233;-76
2022/08/03 13:19:43;;;;;;;1.50;0.90;;;39.00;52.80;;;;;;4986842;28;20191;-76
2022/08/03 13:22:17;;;;;;;1.33;0.90;;;39.10;51.70;;;;;;4986110;28;20203;-77